createdAt,value
2022-08-02T00:00:12.155Z,51.68
2022-08-02T00:02:39.100Z,51.78
2022-08-02T00:05:06.813Z,51.29
2022-08-02T00:07:37.721Z,51.65
2022-08-02T00:10:09.544Z,51.38
2022-08-02T00:12:36.597Z,51.66
2022-08-02T00:15:04.567Z,51.28
2022-08-02T00:17:31.186Z,51.46
2022-08-02T00:19:57.832Z,51.55
2022-08-02T00:22:24.481Z,51.64
2022-08-02T00:24:51.069Z,51.28
2022-08-02T00:27:18.389Z,51.33
2022-08-02T00:29:52.906Z,51.15
2022-08-02T00:32:23.092Z,51.01
2022-08-02T00:34:50.500Z,51.29
2022-08-02T00:37:17.036Z,51.05
2022-08-02T00:39:43.632Z,50.90
2022-08-02T00:42:11.457Z,51.21
2022-08-02T00:44:38.284Z,50.84
2022-08-02T00:47:05.170Z,51.15
2022-08-02T00:49:32.131Z,51.03
2022-08-02T00:52:00.306Z,50.74
2022-08-02T00:54:27.488Z,51.15
2022-08-02T00:56:54.151Z,50.87
2022-08-02T00:59:20.919Z,51.41
2022-08-02T01:01:56.675Z,51.38
2022-08-02T01:04:31.091Z,51.74
2022-08-02T01:07:03.344Z,52.43
2022-08-02T01:09:40.414Z,51.92
2022-08-02T01:12:07.883Z,52.04
2022-08-02T01:14:34.708Z,51.97
2022-08-02T01:17:28.649Z,53.41
2022-08-02T01:20:20.059Z,54.34
2022-08-02T01:23:13.833Z,53.95
2022-08-02T01:25:52.491Z,54.17
2022-08-02T01:28:37.724Z,53.32
2022-08-02T01:31:19.250Z,53.98
2022-08-02T01:33:54.165Z,53.75
2022-08-02T01:36:23.750Z,53.41
2022-08-02T01:38:54.569Z,53.70
2022-08-02T01:41:25.495Z,53.53
2022-08-02T01:43:56.704Z,53.58
2022-08-02T01:46:25.308Z,53.27
2022-08-02T01:48:54.455Z,53.34
2022-08-02T01:51:22.113Z,53.09
2022-08-02T01:53:51.203Z,53.14
2022-08-02T01:56:19.585Z,52.80
2022-08-02T01:58:48.101Z,53.15
2022-08-02T02:01:18.734Z,53.18
2022-08-02T02:03:48.685Z,52.95
2022-08-02T02:06:16.233Z,52.91
2022-08-02T02:08:44.373Z,53.27
2022-08-02T02:12:05.849Z,53.51
2022-08-02T02:14:00.854Z,52.92
2022-08-02T02:16:28.537Z,53.12
2022-08-02T02:18:55.290Z,53.20
2022-08-02T02:21:22.057Z,53.34
2022-08-02T02:23:50.064Z,53.80
2022-08-02T02:26:29.629Z,53.39
2022-08-02T02:29:02.328Z,54.21
2022-08-02T02:31:34.728Z,54.84
2022-08-02T02:34:04.738Z,53.96
2022-08-02T02:36:34.042Z,54.73
2022-08-02T02:39:04.181Z,54.17
2022-08-02T02:41:31.020Z,53.93
2022-08-02T02:44:01.290Z,54.75
2022-08-02T02:46:30.653Z,55.01
2022-08-02T02:48:58.312Z,54.53
2022-08-02T02:51:25.595Z,54.66
2022-08-02T02:54:30.589Z,54.41
2022-08-02T02:56:41.068Z,55.19
2022-08-02T02:59:09.044Z,54.59
2022-08-02T03:01:56.621Z,54.66
2022-08-02T03:04:24.959Z,55.10
2022-08-02T03:06:51.680Z,54.76
2022-08-02T03:09:18.303Z,55.11
2022-08-02T03:11:45.604Z,55.04
2022-08-02T03:14:13.076Z,55.01
2022-08-02T03:16:47.989Z,55.99
2022-08-02T03:19:15.172Z,55.07
2022-08-02T03:21:46.237Z,55.73
2022-08-02T03:24:13.729Z,55.20
2022-08-02T03:26:41.433Z,54.79
2022-08-02T03:29:09.763Z,54.75
2022-08-02T03:31:41.428Z,55.49
2022-08-02T03:34:08.456Z,54.67
2022-08-02T03:36:35.449Z,55.01
2022-08-02T03:39:03.686Z,55.42
2022-08-02T03:41:32.679Z,55.58
2022-08-02T03:44:00.690Z,55.54
2022-08-02T03:46:27.599Z,55.31
2022-08-02T03:48:54.823Z,55.28
2022-08-02T03:51:22.636Z,55.51
2022-08-02T03:53:50.000Z,55.37
2022-08-02T03:56:17.005Z,55.44
2022-08-02T03:58:48.633Z,55.56
2022-08-02T04:01:16.164Z,55.44
2022-08-02T04:03:42.966Z,55.53
2022-08-02T04:06:09.615Z,55.43
2022-08-02T04:08:38.374Z,55.73
2022-08-02T04:11:06.584Z,55.57
2022-08-02T04:13:36.132Z,55.73
2022-08-02T04:16:17.928Z,56.18
2022-08-02T04:18:55.625Z,56.28
2022-08-02T04:21:25.797Z,56.18
2022-08-02T04:23:53.256Z,55.88
2022-08-02T04:26:26.777Z,56.15
2022-08-02T04:28:56.848Z,56.28
2022-08-02T04:31:23.558Z,56.00
2022-08-02T04:33:50.594Z,55.99
2022-08-02T04:36:30.996Z,56.16
2022-08-02T04:38:58.508Z,56.09
2022-08-02T04:41:40.760Z,56.29
2022-08-02T04:44:10.634Z,55.63
2022-08-02T04:46:37.423Z,55.71
2022-08-02T04:49:04.837Z,55.61
2022-08-02T04:51:37.673Z,55.59
2022-08-02T04:54:09.506Z,55.46
2022-08-02T04:56:36.336Z,55.25
2022-08-02T04:59:03.036Z,55.40
2022-08-02T05:01:29.628Z,55.58
2022-08-02T05:03:56.250Z,55.29
2022-08-02T05:06:22.858Z,55.05
2022-08-02T05:08:52.823Z,55.13
2022-08-02T05:11:21.348Z,55.25
2022-08-02T05:13:58.872Z,55.42
2022-08-02T05:16:30.859Z,55.08
2022-08-02T05:18:58.714Z,55.13
2022-08-02T05:21:25.236Z,55.27
2022-08-02T05:23:51.786Z,55.09
2022-08-02T05:26:18.508Z,55.12
2022-08-02T05:28:45.282Z,54.64
2022-08-02T05:31:13.406Z,54.93
2022-08-02T05:33:40.705Z,54.74
2022-08-02T05:36:07.536Z,54.72
2022-08-02T05:38:36.973Z,54.73
2022-08-02T05:41:05.339Z,54.80
2022-08-02T05:43:32.764Z,55.00
2022-08-02T05:45:59.774Z,54.82
2022-08-02T05:48:31.179Z,54.75
2022-08-02T05:51:17.012Z,54.89
2022-08-02T05:53:52.082Z,55.36
2022-08-02T05:56:50.915Z,54.88
2022-08-02T05:59:32.476Z,55.09
2022-08-02T06:02:04.570Z,55.61
2022-08-02T06:04:51.182Z,55.62
2022-08-02T06:07:19.604Z,55.10
2022-08-02T06:09:49.107Z,55.25
2022-08-02T06:12:17.288Z,54.99
2022-08-02T06:14:46.111Z,54.70
2022-08-02T06:17:14.105Z,54.00
2022-08-02T06:19:51.516Z,53.51
2022-08-02T06:22:32.542Z,53.73
2022-08-02T06:25:04.147Z,53.64
2022-08-02T06:27:31.775Z,53.45
2022-08-02T06:29:58.604Z,53.20
2022-08-02T06:32:26.877Z,52.01
2022-08-02T06:34:53.515Z,52.52
2022-08-02T06:37:29.318Z,51.71
2022-08-02T06:40:07.990Z,51.29
2022-08-02T06:43:12.396Z,50.92
2022-08-02T06:45:40.117Z,51.49
2022-08-02T06:48:07.872Z,51.12
2022-08-02T06:50:35.512Z,50.92
2022-08-02T06:53:02.095Z,51.20
2022-08-02T06:55:28.690Z,51.18
2022-08-02T06:57:55.263Z,50.93
2022-08-02T07:00:21.961Z,50.61
2022-08-02T07:02:49.487Z,50.84
2022-08-02T07:05:16.389Z,50.21
2022-08-02T07:07:43.022Z,50.71
2022-08-02T07:10:09.816Z,50.84
2022-08-02T07:12:36.423Z,50.67
2022-08-02T07:15:06.107Z,50.23
2022-08-02T07:17:33.557Z,50.37
2022-08-02T07:20:00.917Z,49.80
2022-08-02T07:22:28.247Z,49.75
2022-08-02T07:24:57.463Z,49.60
2022-08-02T07:27:24.322Z,49.21
2022-08-02T07:29:51.165Z,49.05
2022-08-02T07:32:19.147Z,48.89
2022-08-02T07:34:50.624Z,48.67
2022-08-02T07:37:32.564Z,48.82
2022-08-02T07:40:11.812Z,48.88
2022-08-02T07:42:40.041Z,48.68
2022-08-02T07:45:07.134Z,48.65
2022-08-02T07:47:37.302Z,47.90
2022-08-02T07:50:04.589Z,47.16
2022-08-02T07:52:31.240Z,47.31
2022-08-02T07:54:57.921Z,47.37
2022-08-02T07:57:24.502Z,47.49
2022-08-02T07:59:51.142Z,47.60
2022-08-02T08:02:17.898Z,47.52
2022-08-02T08:04:44.646Z,46.90
2022-08-02T08:07:11.244Z,47.28
2022-08-02T08:09:38.704Z,47.00
2022-08-02T08:12:06.532Z,46.91
2022-08-02T08:14:33.215Z,47.39
2022-08-02T08:17:00.676Z,45.61
2022-08-02T08:19:49.976Z,45.73
2022-08-02T08:22:14.240Z,44.74
2022-08-02T08:24:41.485Z,45.01
2022-08-02T08:27:08.179Z,45.61
2022-08-02T08:29:34.696Z,46.20
2022-08-02T08:32:01.289Z,45.82
2022-08-02T08:34:27.837Z,45.23
2022-08-02T08:36:54.449Z,45.08
2022-08-02T08:39:21.010Z,45.35
2022-08-02T08:41:47.865Z,44.60
2022-08-02T08:44:14.534Z,44.54
2022-08-02T08:46:43.226Z,44.89
2022-08-02T08:49:18.323Z,44.51
2022-08-02T08:51:45.251Z,44.54
2022-08-02T08:54:15.924Z,44.96
2022-08-02T08:56:43.834Z,45.70
2022-08-02T08:59:10.483Z,45.94
2022-08-02T09:01:49.960Z,44.41
2022-08-02T09:04:18.553Z,44.15
2022-08-02T09:06:45.156Z,44.47
2022-08-02T09:09:11.762Z,43.93
2022-08-02T09:11:38.333Z,43.63
2022-08-02T09:14:05.315Z,43.98
2022-08-02T09:16:32.986Z,42.99
2022-08-02T09:19:00.021Z,43.46
2022-08-02T09:21:36.431Z,43.22
2022-08-02T09:24:14.734Z,42.54
2022-08-02T09:26:42.247Z,42.91
2022-08-02T09:29:09.137Z,43.18
2022-08-02T09:31:35.648Z,43.25
2022-08-02T09:34:02.312Z,43.80
2022-08-02T09:36:40.191Z,43.15
2022-08-02T09:39:08.976Z,43.97
2022-08-02T09:41:37.593Z,43.20
2022-08-02T09:44:06.783Z,43.20
2022-08-02T09:46:39.194Z,42.91
2022-08-02T09:49:15.576Z,42.82
2022-08-02T09:51:45.180Z,41.77
2022-08-02T09:54:18.814Z,41.04
2022-08-02T09:56:59.375Z,41.95
2022-08-02T09:59:27.646Z,39.79
2022-08-02T10:02:01.741Z,39.59
2022-08-02T10:04:34.360Z,39.43
2022-08-02T10:07:19.255Z,39.56
2022-08-02T10:09:49.010Z,39.86
2022-08-02T10:12:16.049Z,38.91
2022-08-02T10:14:43.185Z,39.09
2022-08-02T10:17:09.895Z,39.21
2022-08-02T10:20:02.076Z,39.08
2022-08-02T10:22:23.888Z,39.35
2022-08-02T10:24:51.435Z,37.75
2022-08-02T10:27:21.541Z,38.59
2022-08-02T10:29:53.760Z,39.10
2022-08-02T10:32:37.575Z,38.83
2022-08-02T10:35:18.240Z,38.25
2022-08-02T10:37:47.860Z,36.64
2022-08-02T10:40:15.043Z,37.24
2022-08-02T10:42:47.225Z,36.94
2022-08-02T10:45:17.386Z,37.48
2022-08-02T10:48:10.337Z,36.99
2022-08-02T10:50:46.270Z,35.91
2022-08-02T10:53:23.978Z,38.04
2022-08-02T10:55:51.791Z,37.61
2022-08-02T10:58:26.218Z,37.00
2022-08-02T11:00:53.926Z,37.66
2022-08-02T11:03:29.119Z,37.41
2022-08-02T11:06:03.566Z,36.76
2022-08-02T11:08:30.342Z,36.33
2022-08-02T11:11:16.729Z,35.57
2022-08-02T11:14:07.316Z,35.42
2022-08-02T11:16:59.917Z,36.63
2022-08-02T11:19:27.596Z,36.92
2022-08-02T11:22:07.164Z,35.50
2022-08-02T11:24:35.350Z,36.41
2022-08-02T11:27:04.975Z,36.46
2022-08-02T11:29:33.458Z,34.92
2022-08-02T11:32:06.855Z,35.93
2022-08-02T11:34:37.421Z,35.81
2022-08-02T11:37:05.238Z,34.76
2022-08-02T11:39:31.869Z,34.17
2022-08-02T11:42:00.668Z,33.60
2022-08-02T11:44:29.251Z,33.82
2022-08-02T11:47:01.841Z,34.35
2022-08-02T11:49:28.779Z,33.40
2022-08-02T11:52:00.979Z,34.24
2022-08-02T11:54:32.469Z,33.38
2022-08-02T11:57:21.964Z,33.92
2022-08-02T11:59:53.550Z,34.12
2022-08-02T12:02:22.874Z,34.27
2022-08-02T12:05:05.637Z,33.38
2022-08-02T12:07:45.850Z,33.58
2022-08-02T12:10:21.504Z,32.56
2022-08-02T12:12:57.250Z,33.05
2022-08-02T12:15:34.237Z,32.69
2022-08-02T12:18:01.860Z,33.52
2022-08-02T12:20:37.143Z,32.16
2022-08-02T12:23:04.681Z,33.50
2022-08-02T12:25:34.509Z,33.55
2022-08-02T12:28:23.340Z,33.42
2022-08-02T12:31:00.146Z,33.32
2022-08-02T12:33:29.782Z,33.38
2022-08-02T12:35:56.595Z,32.88
2022-08-02T12:38:23.304Z,33.14
2022-08-02T12:40:49.989Z,33.27
2022-08-02T12:43:22.422Z,33.13
2022-08-02T12:45:53.493Z,33.22
2022-08-02T12:48:42.206Z,33.30
2022-08-02T12:51:50.754Z,32.55
2022-08-02T12:54:31.235Z,33.58
2022-08-02T12:57:11.059Z,33.45
2022-08-02T12:59:40.444Z,33.08
2022-08-02T13:02:09.601Z,32.93
2022-08-02T13:04:37.124Z,32.08
2022-08-02T13:07:04.936Z,31.56
2022-08-02T13:09:42.324Z,31.88
2022-08-02T13:12:09.125Z,32.10
2022-08-02T13:14:39.934Z,32.43
2022-08-02T13:17:08.966Z,32.13
2022-08-02T13:19:36.645Z,32.28
2022-08-02T13:22:11.315Z,32.58
2022-08-02T13:24:55.063Z,32.40
2022-08-02T13:27:24.800Z,32.28
2022-08-02T13:29:52.612Z,32.02
2022-08-02T13:32:19.238Z,32.82
2022-08-02T13:34:45.982Z,32.17
2022-08-02T13:37:12.611Z,31.64
2022-08-02T13:39:39.216Z,31.65
2022-08-02T13:42:06.090Z,31.83
2022-08-02T13:44:33.347Z,31.92
2022-08-02T13:47:00.876Z,32.15
2022-08-02T13:49:50.021Z,31.95
2022-08-02T13:52:14.505Z,31.72
2022-08-02T13:54:41.398Z,31.32
2022-08-02T13:57:08.111Z,31.51
2022-08-02T13:59:57.457Z,31.35
2022-08-02T14:02:21.377Z,31.34
2022-08-02T14:04:48.165Z,31.43
2022-08-02T14:07:14.692Z,31.29
2022-08-02T14:09:41.597Z,31.13
2022-08-02T14:12:08.332Z,30.95
2022-08-02T14:14:35.029Z,30.67
2022-08-02T14:17:02.030Z,30.08
2022-08-02T14:19:28.663Z,29.80
2022-08-02T14:21:55.836Z,29.35
2022-08-02T14:24:38.251Z,29.40
2022-08-02T14:27:05.051Z,29.66
2022-08-02T14:29:31.603Z,29.68
2022-08-02T14:31:58.232Z,29.57
2022-08-02T14:34:24.785Z,29.71
2022-08-02T14:36:53.824Z,29.68
2022-08-02T14:39:21.230Z,29.46
2022-08-02T14:41:59.962Z,29.02
2022-08-02T14:44:28.412Z,29.01
2022-08-02T14:46:54.906Z,29.92
2022-08-02T14:49:25.388Z,28.84
2022-08-02T14:51:55.833Z,29.01
2022-08-02T14:54:27.790Z,28.41
2022-08-02T14:56:55.801Z,27.72
2022-08-02T14:59:22.644Z,28.42
2022-08-02T15:01:49.276Z,27.08
2022-08-02T15:04:15.888Z,27.46
2022-08-02T15:06:42.536Z,27.07
2022-08-02T15:09:09.131Z,26.45
2022-08-02T15:11:48.283Z,25.96
2022-08-02T15:14:26.045Z,24.93
2022-08-02T15:16:57.028Z,25.72
2022-08-02T15:19:39.242Z,25.17
2022-08-02T15:22:11.512Z,25.23
2022-08-02T15:24:43.124Z,25.55
2022-08-02T15:27:10.016Z,25.99
2022-08-02T15:29:37.218Z,25.57
2022-08-02T15:32:03.848Z,25.86
2022-08-02T15:34:30.515Z,25.72
2022-08-02T15:36:57.109Z,25.21
2022-08-02T15:39:23.824Z,24.86
2022-08-02T15:41:50.442Z,24.04
2022-08-02T15:44:17.035Z,23.87
2022-08-02T15:46:43.694Z,22.35
2022-08-02T15:49:10.213Z,22.97
2022-08-02T15:51:36.904Z,22.62
2022-08-02T15:54:03.500Z,22.19
2022-08-02T15:56:30.064Z,22.49
2022-08-02T15:58:57.063Z,22.90
2022-08-02T16:01:25.721Z,23.30
2022-08-02T16:04:04.706Z,23.26
2022-08-02T16:06:31.274Z,22.56
2022-08-02T16:08:57.896Z,23.26
2022-08-02T16:11:24.432Z,23.58
2022-08-02T16:13:52.743Z,22.69
2022-08-02T16:16:25.375Z,23.11
2022-08-02T16:18:52.066Z,23.32
2022-08-02T16:21:18.762Z,24.02
2022-08-02T16:24:01.843Z,24.18
2022-08-02T16:26:33.281Z,24.04
2022-08-02T16:29:01.288Z,24.66
2022-08-02T16:31:28.231Z,24.90
2022-08-02T16:33:56.556Z,24.96
2022-08-02T16:36:25.191Z,24.83
2022-08-02T16:38:53.878Z,24.69
2022-08-02T16:41:21.500Z,23.62
2022-08-02T16:43:48.104Z,24.65
2022-08-02T16:46:14.985Z,23.78
2022-08-02T16:51:23.664Z,23.23
2022-08-02T16:54:00.483Z,23.07
2022-08-02T16:56:30.356Z,21.31
2022-08-02T16:59:57.772Z,22.05
2022-08-02T17:02:26.659Z,21.79
2022-08-02T17:04:54.750Z,21.65
2022-08-02T17:08:07.424Z,21.54
2022-08-02T17:10:14.285Z,20.84
2022-08-02T17:12:45.926Z,20.21
2022-08-02T17:16:01.525Z,20.26
2022-08-02T17:18:05.332Z,21.97
2022-08-02T17:20:35.986Z,20.09
2022-08-02T17:23:04.056Z,20.33
2022-08-02T17:25:32.028Z,20.78
2022-08-02T17:27:59.428Z,20.81
2022-08-02T17:30:27.262Z,20.95
2022-08-02T17:32:57.799Z,21.24
2022-08-02T17:35:26.838Z,21.90
2022-08-02T17:38:10.468Z,22.12
2022-08-02T17:40:37.428Z,22.26
2022-08-02T17:43:14.492Z,22.45
2022-08-02T17:46:00.222Z,22.79
2022-08-02T17:48:29.327Z,23.00
2022-08-02T17:51:04.146Z,22.92
2022-08-02T17:53:36.233Z,23.04
2022-08-02T17:56:03.374Z,23.38
2022-08-02T17:58:33.465Z,23.67
2022-08-02T18:01:00.678Z,24.37
2022-08-02T18:03:28.591Z,24.58
2022-08-02T18:05:57.537Z,25.38
2022-08-02T18:08:24.601Z,25.66
2022-08-02T18:10:53.704Z,26.13
2022-08-02T18:13:23.857Z,26.24
2022-08-02T18:15:51.839Z,26.84
2022-08-02T18:18:29.264Z,27.29
2022-08-02T18:20:56.876Z,27.59
2022-08-02T18:23:24.297Z,27.63
2022-08-02T18:25:55.172Z,27.76
2022-08-02T18:28:26.759Z,28.51
2022-08-02T18:30:53.751Z,28.87
2022-08-02T18:33:57.199Z,29.10
2022-08-02T18:36:11.030Z,29.51
2022-08-02T18:38:51.411Z,29.62
2022-08-02T18:41:18.948Z,30.04
2022-08-02T18:43:48.521Z,30.44
2022-08-02T18:46:17.290Z,30.78
2022-08-02T18:48:48.006Z,31.10
2022-08-02T18:51:15.144Z,30.84
2022-08-02T18:53:42.831Z,31.18
2022-08-02T18:56:20.295Z,32.19
2022-08-02T18:58:55.242Z,32.63
2022-08-02T19:01:33.883Z,32.21
2022-08-02T19:04:02.977Z,32.77
2022-08-02T19:06:29.932Z,33.32
2022-08-02T19:09:05.434Z,33.90
2022-08-02T19:11:38.317Z,34.29
2022-08-02T19:14:05.105Z,34.19
2022-08-02T19:16:36.827Z,34.53
2022-08-02T19:19:07.446Z,35.49
2022-08-02T19:22:26.521Z,34.82
2022-08-02T19:24:20.776Z,35.06
2022-08-02T19:26:51.715Z,35.40
2022-08-02T19:29:25.053Z,35.71
2022-08-02T19:32:39.201Z,35.86
2022-08-02T19:34:53.360Z,36.09
2022-08-02T19:37:20.076Z,36.51
2022-08-02T19:39:46.693Z,36.74
2022-08-02T19:42:14.748Z,36.74
2022-08-02T19:44:45.075Z,37.41
2022-08-02T19:47:12.981Z,37.32
2022-08-02T19:49:48.676Z,37.52
2022-08-02T19:52:22.121Z,37.28
2022-08-02T19:54:55.356Z,37.44
2022-08-02T19:57:22.779Z,37.93
2022-08-02T19:59:49.620Z,37.97
2022-08-02T20:02:18.074Z,38.45
2022-08-02T20:04:50.372Z,38.70
2022-08-02T20:07:54.952Z,39.01
2022-08-02T20:10:10.960Z,39.17
2022-08-02T20:12:41.928Z,40.69
2022-08-02T20:15:14.468Z,39.44
2022-08-02T20:17:47.360Z,39.67
2022-08-02T20:20:14.691Z,39.78
2022-08-02T20:22:41.513Z,39.91
2022-08-02T20:25:10.294Z,39.97
2022-08-02T20:27:50.995Z,40.63
2022-08-02T20:30:18.216Z,40.78
2022-08-02T20:32:52.726Z,40.75
2022-08-02T20:35:23.234Z,41.07
2022-08-02T20:38:01.420Z,40.92
2022-08-02T20:40:29.621Z,41.01
2022-08-02T20:42:56.788Z,41.33
2022-08-02T20:45:24.048Z,41.42
2022-08-02T20:47:54.577Z,41.51
2022-08-02T20:50:22.328Z,41.92
2022-08-02T20:52:57.647Z,41.87
2022-08-02T20:55:25.015Z,42.06
2022-08-02T20:58:00.273Z,41.92
2022-08-02T21:00:27.964Z,42.26
2022-08-02T21:02:54.507Z,42.47
2022-08-02T21:05:26.738Z,42.29
2022-08-02T21:08:11.532Z,42.53
2022-08-02T21:10:43.594Z,42.66
2022-08-02T21:13:18.522Z,42.87
2022-08-02T21:15:46.023Z,42.62
2022-08-02T21:18:23.888Z,42.67
2022-08-02T21:20:59.902Z,42.91
2022-08-02T21:23:27.328Z,42.83
2022-08-02T21:25:57.276Z,43.32
2022-08-02T21:28:24.739Z,43.02
2022-08-02T21:31:10.081Z,43.66
2022-08-02T21:33:57.105Z,43.26
2022-08-02T21:36:23.440Z,43.34
2022-08-02T21:38:58.140Z,43.55
2022-08-02T21:41:24.718Z,43.88
2022-08-02T21:44:07.422Z,44.02
2022-08-02T21:46:34.691Z,43.76
2022-08-02T21:49:01.735Z,43.93
2022-08-02T21:51:29.095Z,44.29
2022-08-02T21:54:18.638Z,44.31
2022-08-02T21:56:48.484Z,44.36
2022-08-02T21:59:17.252Z,44.99
2022-08-02T22:01:52.864Z,44.91
2022-08-02T22:04:21.350Z,45.17
2022-08-02T22:06:49.077Z,45.18
2022-08-02T22:09:43.983Z,45.09
2022-08-02T22:12:09.709Z,45.29
2022-08-02T22:14:39.429Z,45.79
2022-08-02T22:17:08.775Z,45.96
2022-08-02T22:19:40.151Z,46.02
2022-08-02T22:22:20.689Z,46.21
2022-08-02T22:24:55.940Z,46.26
2022-08-02T22:27:23.573Z,46.25
2022-08-02T22:30:10.732Z,46.11
2022-08-02T22:32:38.091Z,46.27
2022-08-02T22:35:08.786Z,46.74
2022-08-02T22:38:14.920Z,46.66
2022-08-02T22:40:22.120Z,46.99
2022-08-02T22:42:50.910Z,47.42
2022-08-02T22:45:17.447Z,47.62
2022-08-02T22:47:50.854Z,47.50
2022-08-02T22:50:18.083Z,47.96
2022-08-02T22:52:46.857Z,47.88
2022-08-02T22:55:17.430Z,47.67
2022-08-02T22:57:56.635Z,47.58
2022-08-02T23:00:25.497Z,47.81
2022-08-02T23:02:52.041Z,47.96
2022-08-02T23:05:18.682Z,47.68
2022-08-02T23:07:45.328Z,47.70
2022-08-02T23:10:11.975Z,47.78
2022-08-02T23:12:38.563Z,47.99
2022-08-02T23:15:05.510Z,48.30
2022-08-02T23:17:32.367Z,47.91
2022-08-02T23:19:58.931Z,47.96
2022-08-02T23:22:29.864Z,48.43
2022-08-02T23:25:00.213Z,48.43
2022-08-02T23:27:26.862Z,48.35
2022-08-02T23:29:53.488Z,48.47
2022-08-02T23:32:22.881Z,48.95
2022-08-02T23:34:53.188Z,48.72
2022-08-02T23:37:19.850Z,48.72
2022-08-02T23:39:46.614Z,48.83
2022-08-02T23:42:13.289Z,48.95
2022-08-02T23:44:40.290Z,49.06
2022-08-02T23:47:07.324Z,48.95
2022-08-02T23:49:34.000Z,49.21
2022-08-02T23:52:01.980Z,49.47
2022-08-02T23:54:28.784Z,50.48
2022-08-02T23:56:55.544Z,49.22
2022-08-02T23:59:22.049Z,49.90
